Mead, Nebraska
Current Conditions -  °F | °C
As of 4:55 AM on Thursday 23 Oct 2014 (Local Time) from KAHQ Reporting Station
Haze Haze  
Wind Chill: 58°   Ceiling: 900
Heat Index: 58°   Visibility: 5mi
Dew Point: 56°   Wind: 3mph
Humidity: 91%   Direction: 240°WSW
Pressure: 30.04"   Gusts: NA
Location:  41.23°N, 96.49°W
Report Text: KAHQ 230955Z AUTO 24003KT 5SM BR BKN009 15/13 A3004 RMK AO2 T01450131
Loading
Personal Weather Stations






























Interactive Weather Map
Tropical Storm Tracking
New forecast layout! Learn more

10-Day Weather Forecast

Advertisements
Track Severe Weather on mobile